createdAt,value
2019-05-10T00:01:38.764Z,94.80
2019-05-10T00:04:24.839Z,94.90
2019-05-10T00:07:11.145Z,94.90
2019-05-10T00:09:38.341Z,95.00
2019-05-10T00:12:14.954Z,95.10
2019-05-10T00:14:51.228Z,95.00
2019-05-10T00:17:20.429Z,95.10
2019-05-10T00:19:48.226Z,95.00
2019-05-10T00:22:17.079Z,95.00
2019-05-10T00:25:00.789Z,95.10
2019-05-10T00:27:14.499Z,95.10
2019-05-10T00:29:42.167Z,95.00
2019-05-10T00:32:09.827Z,95.10
2019-05-10T00:34:37.648Z,95.20
2019-05-10T00:37:05.439Z,95.10
2019-05-10T00:39:33.273Z,95.50
2019-05-10T00:42:01.036Z,95.20
2019-05-10T00:44:28.712Z,95.00
2019-05-10T00:46:56.406Z,94.90
2019-05-10T00:49:24.150Z,94.90
2019-05-10T00:51:51.801Z,94.80
2019-05-10T00:54:20.623Z,94.60
2019-05-10T00:56:48.260Z,94.40
2019-05-10T00:59:16.028Z,94.50
2019-05-10T01:01:43.654Z,94.40
2019-05-10T01:04:11.330Z,94.50
2019-05-10T01:06:39.094Z,94.60
2019-05-10T01:09:06.906Z,94.60
2019-05-10T01:11:34.568Z,94.30
2019-05-10T01:14:02.080Z,94.20
2019-05-10T01:16:29.707Z,94.20
2019-05-10T01:18:57.531Z,94.20
2019-05-10T01:21:25.340Z,94.30
2019-05-10T01:23:53.059Z,94.30
2019-05-10T01:26:22.302Z,94.20
2019-05-10T01:28:49.911Z,94.40
2019-05-10T01:31:17.835Z,94.40
2019-05-10T01:33:45.531Z,94.30
2019-05-10T01:36:13.159Z,94.50
2019-05-10T01:38:41.073Z,94.50
2019-05-10T01:41:08.734Z,94.60
2019-05-10T01:43:36.362Z,94.80
2019-05-10T01:46:04.171Z,94.80
2019-05-10T01:48:31.873Z,94.90
2019-05-10T01:50:59.502Z,94.80
2019-05-10T01:53:27.249Z,94.90
2019-05-10T01:55:54.932Z,95.00
2019-05-10T01:58:22.795Z,94.90
2019-05-10T02:00:50.486Z,95.00
2019-05-10T02:03:18.233Z,95.00
2019-05-10T02:05:45.985Z,95.10
2019-05-10T02:08:13.736Z,95.10
2019-05-10T02:10:41.390Z,95.10
2019-05-10T02:13:08.930Z,95.20
2019-05-10T02:15:37.080Z,95.20
2019-05-10T02:18:04.910Z,95.30
2019-05-10T02:20:32.584Z,95.40
2019-05-10T02:23:00.386Z,95.40
2019-05-10T02:25:28.065Z,95.40
2019-05-10T02:27:55.729Z,95.40
2019-05-10T02:30:23.603Z,95.40
2019-05-10T02:32:51.264Z,95.50
2019-05-10T02:35:19.179Z,95.50
2019-05-10T02:37:46.820Z,95.50
2019-05-10T02:40:14.630Z,95.50
2019-05-10T02:42:42.533Z,95.40
2019-05-10T02:45:10.557Z,95.50
2019-05-10T02:47:38.279Z,95.40
2019-05-10T02:50:06.224Z,95.50
2019-05-10T02:52:33.930Z,95.50
2019-05-10T02:55:02.487Z,95.40
2019-05-10T02:57:30.655Z,95.50
2019-05-10T03:00:03.432Z,95.40
2019-05-10T03:02:35.421Z,95.30
2019-05-10T03:05:03.712Z,95.20
2019-05-10T03:07:35.890Z,95.20
2019-05-10T03:10:04.456Z,95.20
2019-05-10T03:12:33.914Z,95.30
2019-05-10T03:15:03.817Z,95.20
2019-05-10T03:17:31.459Z,95.20
2019-05-10T03:20:01.620Z,95.20
2019-05-10T03:22:32.911Z,95.10
2019-05-10T03:25:00.683Z,95.20
2019-05-10T03:27:28.246Z,95.10
2019-05-10T03:29:56.046Z,95.10
2019-05-10T03:32:23.580Z,95.00
2019-05-10T03:34:51.317Z,95.00
2019-05-10T03:37:19.197Z,94.90
2019-05-10T03:39:47.345Z,95.00
2019-05-10T03:42:15.308Z,95.00
2019-05-10T03:44:43.148Z,94.90
2019-05-10T03:47:10.765Z,95.00
2019-05-10T03:49:38.451Z,95.00
2019-05-10T03:52:06.260Z,95.10
2019-05-10T03:54:33.951Z,95.10
2019-05-10T03:57:12.873Z,95.10
2019-05-10T03:59:31.191Z,95.10
2019-05-10T04:01:59.034Z,95.10
2019-05-10T04:04:26.689Z,95.10
2019-05-10T04:06:54.484Z,95.10
2019-05-10T04:09:23.187Z,95.20
2019-05-10T04:11:50.898Z,95.10
2019-05-10T04:14:18.621Z,95.10
2019-05-10T04:16:46.341Z,95.10
2019-05-10T04:19:13.989Z,95.10
2019-05-10T04:21:45.025Z,95.00
2019-05-10T04:24:12.646Z,95.00
2019-05-10T04:26:40.324Z,95.00
2019-05-10T04:29:08.162Z,95.00
2019-05-10T04:31:36.398Z,95.00
2019-05-10T04:34:04.025Z,94.80
2019-05-10T04:36:31.780Z,94.80
2019-05-10T04:38:59.486Z,94.70
2019-05-10T04:41:27.121Z,94.60
2019-05-10T04:43:54.984Z,94.50
2019-05-10T04:46:23.110Z,94.60
2019-05-10T04:48:50.887Z,94.50
2019-05-10T04:51:18.730Z,94.50
2019-05-10T04:53:46.356Z,94.50
2019-05-10T04:56:14.145Z,94.40
2019-05-10T04:58:41.874Z,94.30
2019-05-10T05:01:09.875Z,94.30
2019-05-10T05:03:37.695Z,94.10
2019-05-10T05:06:05.551Z,94.10
2019-05-10T05:08:33.321Z,94.20
2019-05-10T05:11:01.202Z,94.10
2019-05-10T05:13:29.104Z,94.00
2019-05-10T05:15:56.843Z,94.00
2019-05-10T05:18:24.532Z,94.00
2019-05-10T05:20:52.244Z,93.90
2019-05-10T05:23:19.964Z,93.50
2019-05-10T05:25:47.654Z,93.60
2019-05-10T05:28:18.384Z,93.50
2019-05-10T05:30:46.299Z,93.40
2019-05-10T05:33:14.199Z,93.70
2019-05-10T05:35:42.038Z,93.20
2019-05-10T05:38:09.835Z,93.10
2019-05-10T05:40:37.516Z,93.20
2019-05-10T05:43:08.215Z,93.00
2019-05-10T05:45:35.697Z,92.40
2019-05-10T05:48:03.527Z,92.30
2019-05-10T05:50:31.062Z,92.20
2019-05-10T05:52:59.744Z,92.00
2019-05-10T05:55:30.717Z,91.80
2019-05-10T05:57:59.268Z,91.90
2019-05-10T06:00:26.569Z,92.10
2019-05-10T06:02:54.237Z,92.00
2019-05-10T06:05:33.979Z,91.60
2019-05-10T06:07:52.458Z,91.30
2019-05-10T06:10:20.389Z,91.50
2019-05-10T06:12:50.500Z,91.40
2019-05-10T06:15:22.933Z,90.90
2019-05-10T06:17:56.153Z,90.80
2019-05-10T06:20:17.109Z,90.60
2019-05-10T06:23:05.224Z,90.60
2019-05-10T06:25:15.910Z,90.30
2019-05-10T06:27:43.736Z,90.40
2019-05-10T06:30:11.830Z,90.00
2019-05-10T06:32:40.591Z,89.30
2019-05-10T06:35:14.097Z,89.00
2019-05-10T06:37:38.338Z,89.60
2019-05-10T06:40:06.712Z,87.50
2019-05-10T06:42:36.168Z,89.30
2019-05-10T06:45:14.047Z,89.40
2019-05-10T06:47:35.178Z,89.60
2019-05-10T06:50:03.703Z,88.70
2019-05-10T06:52:31.416Z,88.40
2019-05-10T06:54:59.462Z,85.90
2019-05-10T06:57:27.303Z,85.90
2019-05-10T06:59:56.979Z,84.90
2019-05-10T07:02:26.743Z,86.00
2019-05-10T07:04:54.117Z,85.00
2019-05-10T07:07:42.734Z,84.40
2019-05-10T07:10:17.734Z,85.40
2019-05-10T07:12:21.060Z,84.60
2019-05-10T07:14:49.436Z,85.00
2019-05-10T07:17:17.302Z,84.80
2019-05-10T07:19:53.505Z,83.10
2019-05-10T07:22:14.827Z,83.60
2019-05-10T07:24:42.523Z,84.60
2019-05-10T07:27:10.298Z,85.40
2019-05-10T07:29:43.398Z,84.60
2019-05-10T07:32:07.558Z,84.30
2019-05-10T07:34:35.213Z,82.60
2019-05-10T07:37:03.138Z,83.80
2019-05-10T07:39:31.126Z,82.90
2019-05-10T07:42:00.501Z,82.70
2019-05-10T07:44:28.556Z,80.80
2019-05-10T07:46:58.527Z,80.60
2019-05-10T07:49:30.101Z,80.10
2019-05-10T07:51:55.495Z,79.80
2019-05-10T07:54:23.161Z,78.70
2019-05-10T07:56:50.911Z,77.70
2019-05-10T07:59:22.020Z,76.10
2019-05-10T08:01:49.098Z,76.00
2019-05-10T08:04:19.750Z,77.60
2019-05-10T08:06:48.643Z,77.60
2019-05-10T08:09:19.060Z,76.30
2019-05-10T08:11:48.335Z,76.80
2019-05-10T08:14:16.003Z,75.30
2019-05-10T08:16:43.726Z,75.50
2019-05-10T08:19:11.394Z,73.00
2019-05-10T08:21:39.094Z,72.50
2019-05-10T08:24:13.468Z,72.50
2019-05-10T08:26:36.379Z,72.60
2019-05-10T08:29:07.755Z,71.80
2019-05-10T08:31:40.539Z,72.00
2019-05-10T08:34:03.395Z,72.40
2019-05-10T08:36:32.188Z,71.80
2019-05-10T08:39:10.014Z,71.00
2019-05-10T08:41:32.563Z,70.90
2019-05-10T08:44:04.559Z,68.40
2019-05-10T08:46:40.074Z,67.00
2019-05-10T08:49:01.941Z,66.80
2019-05-10T08:51:29.359Z,67.60
2019-05-10T08:53:58.332Z,67.50
2019-05-10T08:56:26.273Z,66.50
2019-05-10T08:58:53.990Z,65.40
2019-05-10T09:01:29.692Z,63.40
2019-05-10T09:03:55.204Z,64.30
2019-05-10T09:06:22.074Z,63.50
2019-05-10T09:08:52.883Z,65.00
2019-05-10T09:11:19.655Z,64.60
2019-05-10T09:13:47.358Z,64.30
2019-05-10T09:16:23.725Z,63.50
2019-05-10T09:18:53.398Z,61.60
2019-05-10T09:21:22.366Z,61.70
2019-05-10T09:23:58.279Z,61.00
2019-05-10T09:26:19.677Z,59.50
2019-05-10T09:28:52.265Z,59.30
2019-05-10T09:31:22.026Z,57.40
2019-05-10T09:33:49.439Z,57.10
2019-05-10T09:36:16.580Z,58.10
2019-05-10T09:38:46.313Z,60.40
2019-05-10T09:41:13.844Z,58.70
2019-05-10T09:43:48.309Z,58.80
2019-05-10T09:46:14.191Z,56.20
2019-05-10T09:48:45.072Z,57.20
2019-05-10T09:51:13.741Z,56.90
2019-05-10T09:53:41.717Z,56.70
2019-05-10T09:56:09.702Z,56.40
2019-05-10T09:58:38.648Z,56.70
2019-05-10T10:01:14.654Z,56.00
2019-05-10T10:03:43.225Z,56.30
2019-05-10T10:06:10.779Z,57.00
2019-05-10T10:08:38.277Z,57.70
2019-05-10T10:11:11.542Z,55.40
2019-05-10T10:13:42.042Z,55.10
2019-05-10T10:16:12.610Z,55.60
2019-05-10T10:18:36.936Z,55.60
2019-05-10T10:21:04.003Z,54.70
2019-05-10T10:23:34.796Z,55.00
2019-05-10T10:26:01.504Z,55.10
2019-05-10T10:28:29.214Z,55.10
2019-05-10T10:31:03.273Z,54.30
2019-05-10T10:33:29.111Z,52.40
2019-05-10T10:36:04.737Z,51.60
2019-05-10T10:38:30.364Z,51.10
2019-05-10T10:40:57.576Z,51.20
2019-05-10T10:43:27.255Z,51.00
2019-05-10T10:45:57.218Z,51.50
2019-05-10T10:48:24.570Z,51.50
2019-05-10T10:50:55.667Z,52.50
2019-05-10T10:53:22.186Z,52.20
2019-05-10T10:55:54.438Z,52.00
2019-05-10T10:58:23.991Z,53.00
2019-05-10T11:00:51.738Z,52.20
2019-05-10T11:03:23.857Z,52.70
2019-05-10T11:05:49.170Z,53.00
2019-05-10T11:08:17.075Z,52.90
2019-05-10T11:10:44.743Z,52.60
2019-05-10T11:13:20.314Z,50.70
2019-05-10T11:15:42.219Z,50.80
2019-05-10T11:18:09.752Z,49.50
2019-05-10T11:20:42.046Z,49.50
2019-05-10T11:23:10.549Z,46.80
2019-05-10T11:25:42.770Z,45.50
2019-05-10T11:28:09.115Z,44.70
2019-05-10T11:30:36.812Z,44.70
2019-05-10T11:33:04.662Z,46.00
2019-05-10T11:35:34.629Z,45.50
2019-05-10T11:38:06.560Z,46.50
2019-05-10T11:40:34.913Z,47.50
2019-05-10T11:43:01.577Z,49.30
2019-05-10T11:45:34.494Z,49.70
2019-05-10T11:48:02.090Z,50.40
2019-05-10T11:50:34.975Z,50.20
2019-05-10T11:53:00.897Z,49.40
2019-05-10T11:55:28.488Z,49.50
2019-05-10T11:58:03.008Z,49.00
2019-05-10T12:00:31.941Z,46.00
2019-05-10T12:03:07.070Z,43.20
2019-05-10T12:07:55.146Z,37.60
2019-05-10T12:10:25.583Z,37.10
2019-05-10T12:13:06.089Z,38.50
2019-05-10T12:15:25.405Z,40.60
2019-05-10T12:17:58.998Z,43.40
2019-05-10T12:20:39.526Z,45.00
2019-05-10T12:22:53.213Z,44.60
2019-05-10T12:25:37.743Z,45.60
2019-05-10T12:26:15.903Z,40.50
2019-05-10T12:27:52.365Z,44.30
2019-05-10T12:30:21.526Z,42.40
2019-05-10T12:33:05.071Z,42.30
2019-05-10T12:35:21.326Z,40.20
2019-05-10T12:37:53.868Z,41.30
2019-05-10T12:40:18.603Z,43.70
2019-05-10T12:42:47.151Z,44.30
2019-05-10T12:45:15.282Z,44.30
2019-05-10T12:47:43.050Z,45.20
2019-05-10T12:50:11.613Z,44.60
2019-05-10T12:52:39.467Z,44.90
2019-05-10T12:55:07.330Z,43.80
2019-05-10T12:57:35.065Z,42.20
2019-05-10T13:00:06.692Z,42.20
2019-05-10T13:02:34.572Z,43.50
2019-05-10T13:05:02.544Z,41.50
2019-05-10T13:07:30.383Z,42.00
2019-05-10T13:10:04.234Z,43.90
2019-05-10T13:12:27.786Z,46.00
2019-05-10T13:14:55.525Z,45.00
2019-05-10T13:17:23.379Z,41.80
2019-05-10T13:19:52.690Z,41.00
2019-05-10T13:22:22.577Z,40.00
2019-05-10T13:24:50.190Z,40.30
2019-05-10T13:27:17.947Z,41.60
2019-05-10T13:29:52.805Z,42.50
2019-05-10T13:32:20.616Z,42.30
2019-05-10T13:34:46.407Z,41.60
2019-05-10T13:37:23.181Z,42.30
2019-05-10T13:39:43.763Z,43.00
2019-05-10T13:42:11.409Z,41.40
2019-05-10T13:44:42.916Z,40.60
2019-05-10T13:47:11.085Z,41.90
2019-05-10T13:49:38.675Z,42.10
2019-05-10T13:52:06.432Z,42.80
2019-05-10T13:54:36.189Z,43.40
2019-05-10T13:57:06.610Z,43.60
2019-05-10T13:59:34.582Z,43.20
2019-05-10T14:02:02.259Z,41.70
2019-05-10T14:04:33.875Z,40.50
2019-05-10T14:07:00.840Z,39.80
2019-05-10T14:09:28.439Z,39.80
2019-05-10T14:11:56.274Z,40.90
2019-05-10T14:14:26.767Z,42.90
2019-05-10T14:16:54.539Z,43.00
2019-05-10T14:19:23.311Z,44.20
2019-05-10T14:21:52.960Z,43.60
2019-05-10T14:24:20.696Z,43.90
2019-05-10T14:26:51.425Z,44.70
2019-05-10T14:29:19.271Z,45.20
2019-05-10T14:31:47.042Z,45.30
2019-05-10T14:34:15.706Z,44.20
2019-05-10T14:36:43.712Z,44.50
2019-05-10T14:39:11.476Z,42.70
2019-05-10T14:41:40.061Z,40.80
2019-05-10T14:44:07.963Z,41.40
2019-05-10T14:46:35.794Z,42.70
2019-05-10T14:49:09.622Z,43.30
2019-05-10T14:51:49.613Z,43.10
2019-05-10T14:54:06.685Z,42.60
2019-05-10T14:56:33.389Z,42.60
2019-05-10T14:59:01.034Z,43.30
2019-05-10T15:01:28.718Z,43.70
2019-05-10T15:03:57.546Z,42.90
2019-05-10T15:06:25.175Z,43.30
2019-05-10T15:08:52.941Z,43.10
2019-05-10T15:11:20.549Z,43.80
2019-05-10T15:13:48.249Z,44.20
2019-05-10T15:16:26.154Z,44.50
2019-05-10T15:18:46.690Z,44.80
2019-05-10T15:21:14.412Z,45.20
2019-05-10T15:23:42.103Z,45.30
2019-05-10T15:26:12.243Z,45.80
2019-05-10T15:28:42.122Z,46.30
2019-05-10T15:31:11.517Z,46.40
2019-05-10T15:33:39.240Z,46.30
2019-05-10T15:36:07.047Z,45.90
2019-05-10T15:38:40.534Z,45.50
2019-05-10T15:41:04.394Z,45.40
2019-05-10T15:43:32.042Z,45.60
2019-05-10T15:45:59.700Z,45.80
2019-05-10T15:48:27.481Z,46.50
2019-05-10T15:50:55.088Z,46.30
2019-05-10T15:53:25.470Z,45.00
2019-05-10T15:55:52.424Z,45.20
2019-05-10T15:58:20.079Z,44.40
2019-05-10T16:00:48.011Z,44.30
2019-05-10T16:03:15.677Z,43.90
2019-05-10T16:05:44.217Z,44.10
2019-05-10T16:08:13.750Z,43.90
2019-05-10T16:10:42.690Z,44.60
2019-05-10T16:13:14.556Z,44.90
2019-05-10T16:15:39.922Z,45.20
2019-05-10T16:18:07.690Z,45.50
2019-05-10T16:20:37.277Z,45.00
2019-05-10T16:23:08.763Z,44.80
2019-05-10T16:25:41.607Z,45.00
2019-05-10T16:28:05.275Z,45.40
2019-05-10T16:30:36.375Z,45.40
2019-05-10T16:33:02.797Z,46.20
2019-05-10T16:35:38.399Z,44.90
2019-05-10T16:38:00.149Z,44.40
2019-05-10T16:40:27.983Z,44.40
2019-05-10T16:42:55.712Z,43.10
2019-05-10T16:45:23.449Z,43.90
2019-05-10T16:47:51.318Z,43.40
2019-05-10T16:50:18.970Z,44.70
2019-05-10T16:52:46.662Z,43.20
2019-05-10T16:55:14.439Z,42.70
2019-05-10T16:57:42.121Z,41.90
2019-05-10T17:00:10.715Z,42.70
2019-05-10T17:02:42.020Z,42.90
2019-05-10T17:05:14.944Z,42.20
2019-05-10T17:07:39.097Z,42.10
2019-05-10T17:10:06.862Z,42.60
2019-05-10T17:12:34.729Z,42.50
2019-05-10T17:15:03.284Z,43.10
2019-05-10T17:17:36.930Z,42.80
2019-05-10T17:20:07.387Z,43.20
2019-05-10T17:22:31.597Z,44.20
2019-05-10T17:25:03.259Z,44.70
2019-05-10T17:27:29.040Z,44.90
2019-05-10T17:29:56.873Z,45.30
2019-05-10T17:32:26.682Z,45.10
2019-05-10T17:34:54.237Z,45.20
2019-05-10T17:37:22.116Z,45.30
2019-05-10T17:39:49.979Z,50.80
2019-05-10T17:42:17.781Z,51.20
2019-05-10T17:44:45.646Z,48.40
2019-05-10T17:47:13.356Z,50.60
2019-05-10T17:49:41.122Z,45.30
2019-05-10T17:52:08.930Z,45.00
2019-05-10T17:54:39.243Z,46.70
2019-05-10T17:57:10.829Z,47.70
2019-05-10T17:59:37.455Z,47.50
2019-05-10T18:02:05.190Z,45.40
2019-05-10T18:04:33.023Z,46.40
2019-05-10T18:07:00.666Z,46.70
2019-05-10T18:09:28.461Z,51.70
2019-05-10T18:11:56.095Z,55.10
2019-05-10T18:14:23.860Z,56.20
2019-05-10T18:16:51.799Z,58.10
2019-05-10T18:19:24.901Z,58.90
2019-05-10T18:21:48.998Z,59.70
2019-05-10T18:24:16.939Z,61.00
2019-05-10T18:26:44.676Z,61.50
2019-05-10T18:29:12.333Z,62.00
2019-05-10T18:31:40.108Z,63.00
2019-05-10T18:34:07.730Z,63.50
2019-05-10T18:36:51.029Z,64.30
2019-05-10T18:39:08.985Z,64.40
2019-05-10T18:41:36.346Z,66.20
2019-05-10T18:44:04.070Z,65.70
2019-05-10T18:46:31.870Z,65.70
2019-05-10T18:48:59.659Z,66.60
2019-05-10T18:51:27.427Z,66.70
2019-05-10T18:53:55.231Z,67.20
2019-05-10T18:56:25.442Z,67.30
2019-05-10T18:58:52.716Z,67.40
2019-05-10T19:01:20.470Z,67.20
2019-05-10T19:03:48.236Z,66.70
2019-05-10T19:06:16.144Z,66.30
2019-05-10T19:08:44.453Z,66.50
2019-05-10T19:11:12.192Z,65.90
2019-05-10T19:13:46.649Z,65.80
2019-05-10T19:16:09.601Z,65.80
2019-05-10T19:18:37.359Z,65.90
2019-05-10T19:21:05.362Z,65.70
2019-05-10T19:23:33.456Z,65.90
2019-05-10T19:26:01.410Z,66.00
2019-05-10T19:28:31.395Z,66.20
2019-05-10T19:31:00.437Z,66.20
2019-05-10T19:33:36.008Z,66.40
2019-05-10T19:35:58.083Z,66.70
2019-05-10T19:38:25.833Z,66.90
2019-05-10T19:40:53.583Z,66.70
2019-05-10T19:43:22.246Z,66.90
2019-05-10T19:45:57.499Z,67.00
2019-05-10T19:48:20.802Z,67.10
2019-05-10T19:50:48.486Z,66.10
2019-05-10T19:53:16.288Z,66.80
2019-05-10T19:55:44.154Z,67.00
2019-05-10T19:58:11.823Z,66.90
2019-05-10T20:00:39.389Z,67.10
2019-05-10T20:03:07.077Z,67.30
2019-05-10T20:05:34.730Z,67.00
2019-05-10T20:08:02.491Z,67.00
2019-05-10T20:10:30.424Z,66.80
2019-05-10T20:12:58.095Z,66.80
2019-05-10T20:15:26.098Z,66.90
2019-05-10T20:17:53.800Z,66.60
2019-05-10T20:20:21.645Z,66.50
2019-05-10T20:22:49.372Z,67.00
2019-05-10T20:25:17.400Z,66.70
2019-05-10T20:27:45.526Z,66.80
2019-05-10T20:30:13.683Z,67.20
2019-05-10T20:32:41.710Z,67.20
2019-05-10T20:35:09.525Z,67.20
2019-05-10T20:37:37.311Z,67.10
2019-05-10T20:40:07.527Z,67.50
2019-05-10T20:42:35.264Z,67.60
2019-05-10T20:45:08.425Z,67.50
2019-05-10T20:47:33.471Z,68.60
2019-05-10T20:50:01.629Z,67.70
2019-05-10T20:52:29.399Z,68.30
2019-05-10T20:54:57.231Z,68.20
2019-05-10T20:57:25.332Z,67.70
2019-05-10T20:59:53.162Z,68.00
2019-05-10T21:02:20.923Z,67.80
2019-05-10T21:04:48.715Z,67.20
2019-05-10T21:07:16.474Z,67.00
2019-05-10T21:09:44.510Z,66.30
2019-05-10T21:12:12.482Z,66.10
2019-05-10T21:14:40.170Z,66.30
2019-05-10T21:17:09.349Z,66.20
2019-05-10T21:19:37.147Z,66.20
2019-05-10T21:22:05.250Z,65.60
2019-05-10T21:24:33.158Z,65.60
2019-05-10T21:27:00.803Z,65.30
2019-05-10T21:29:28.704Z,66.40
2019-05-10T21:31:56.482Z,65.70
2019-05-10T21:34:24.539Z,65.30
2019-05-10T21:36:52.815Z,65.70
2019-05-10T21:39:20.614Z,65.30
2019-05-10T21:41:48.308Z,65.30
2019-05-10T21:44:16.401Z,65.90
2019-05-10T21:46:44.306Z,65.30
2019-05-10T21:49:12.216Z,65.90
2019-05-10T21:51:39.871Z,66.40
2019-05-10T21:54:07.687Z,67.00
2019-05-10T21:56:36.361Z,68.10
2019-05-10T21:59:05.060Z,70.30
2019-05-10T22:01:34.130Z,69.50
2019-05-10T22:04:03.962Z,70.90
2019-05-10T22:06:33.057Z,71.10
2019-05-10T22:09:00.764Z,71.20
2019-05-10T22:11:28.579Z,71.80
2019-05-10T22:13:57.560Z,72.00
2019-05-10T22:16:26.419Z,73.30
2019-05-10T22:19:01.853Z,72.70
2019-05-10T22:21:29.915Z,73.10
2019-05-10T22:23:57.700Z,73.50
2019-05-10T22:26:25.576Z,73.50
2019-05-10T22:28:53.175Z,74.20
2019-05-10T22:31:20.935Z,74.70
2019-05-10T22:33:48.813Z,76.10
2019-05-10T22:36:16.595Z,77.60
2019-05-10T22:38:44.364Z,78.80
2019-05-10T22:41:12.109Z,79.70
2019-05-10T22:43:39.945Z,83.80
2019-05-10T22:46:07.754Z,85.00
2019-05-10T22:48:35.627Z,85.90
2019-05-10T22:51:03.296Z,86.40
2019-05-10T22:53:30.980Z,87.40
2019-05-10T22:55:59.235Z,88.30
2019-05-10T22:58:27.121Z,87.50
2019-05-10T23:00:54.810Z,87.10
2019-05-10T23:03:24.539Z,87.70
2019-05-10T23:05:52.528Z,88.10
2019-05-10T23:08:20.360Z,87.50
2019-05-10T23:10:48.137Z,86.40
2019-05-10T23:13:15.938Z,85.80
2019-05-10T23:15:43.708Z,86.20
2019-05-10T23:18:11.316Z,86.20
2019-05-10T23:20:39.073Z,86.30
2019-05-10T23:23:06.866Z,86.90
2019-05-10T23:25:34.565Z,87.90
2019-05-10T23:28:02.315Z,87.80
2019-05-10T23:30:30.238Z,86.80
2019-05-10T23:32:57.959Z,87.50
2019-05-10T23:35:28.548Z,88.10
2019-05-10T23:37:56.407Z,88.00
2019-05-10T23:40:24.129Z,87.80
2019-05-10T23:42:54.437Z,87.30
2019-05-10T23:45:22.209Z,87.40
2019-05-10T23:47:49.894Z,87.70
2019-05-10T23:50:17.697Z,88.00
2019-05-10T23:52:45.643Z,88.00
2019-05-10T23:55:13.324Z,87.80
2019-05-10T23:57:40.952Z,87.60
